createdAt,value
2022-12-14T00:02:16.649Z,192.63
2022-12-14T00:04:45.367Z,189.18
2022-12-14T00:07:14.076Z,195.57
2022-12-14T00:09:42.496Z,179.65
2022-12-14T00:12:10.947Z,196.10
2022-12-14T00:14:39.931Z,193.63
2022-12-14T00:17:09.814Z,166.30
2022-12-14T00:19:38.676Z,192.93
2022-12-14T00:22:07.348Z,190.35
2022-12-14T00:24:36.187Z,205.13
2022-12-14T00:27:04.832Z,199.48
2022-12-14T00:29:33.626Z,203.70
2022-12-14T00:32:02.188Z,223.50
2022-12-14T00:34:32.249Z,72.43
2022-12-14T00:37:01.124Z,108.85
2022-12-14T00:39:29.943Z,140.45
2022-12-14T00:42:01.305Z,154.05
2022-12-14T00:44:30.058Z,161.00
2022-12-14T00:46:59.988Z,142.57
2022-12-14T00:49:28.854Z,156.80
2022-12-14T00:52:01.233Z,150.93
2022-12-14T00:54:30.043Z,132.77
2022-12-14T00:56:58.699Z,134.67
2022-12-14T00:59:27.783Z,146.87
2022-12-14T01:01:56.421Z,132.90
2022-12-14T01:04:26.226Z,132.67
2022-12-14T01:06:55.793Z,137.35
2022-12-14T01:09:27.215Z,85.30
2022-12-14T01:11:55.761Z,141.55
2022-12-14T01:14:24.828Z,117.90
2022-12-14T01:16:53.453Z,132.83
2022-12-14T01:19:21.905Z,138.83
2022-12-14T01:21:50.579Z,124.78
2022-12-14T01:24:22.246Z,116.30
2022-12-14T01:26:52.224Z,130.93
2022-12-14T01:29:20.773Z,133.00
2022-12-14T01:31:55.066Z,122.85
2022-12-14T01:34:23.552Z,94.63
2022-12-14T01:36:52.001Z,79.33
2022-12-14T01:39:23.243Z,89.43
2022-12-14T01:41:53.765Z,123.73
2022-12-14T01:44:55.075Z,125.07
2022-12-14T01:47:29.453Z,85.40
2022-12-14T01:50:03.600Z,71.50
2022-12-14T01:52:42.544Z,84.65
2022-12-14T01:55:22.936Z,132.93
2022-12-14T01:58:03.942Z,111.97
2022-12-14T02:00:33.639Z,121.25
2022-12-14T02:03:13.100Z,114.88
2022-12-14T02:05:47.100Z,92.35
2022-12-14T02:08:17.071Z,87.28
2022-12-14T02:10:46.422Z,96.78
2022-12-14T02:13:19.135Z,100.15
2022-12-14T02:15:48.061Z,107.60
2022-12-14T02:18:21.814Z,90.88
2022-12-14T02:21:03.560Z,60.47
2022-12-14T02:23:59.141Z,64.88
2022-12-14T02:26:47.130Z,70.93
2022-12-14T02:29:42.940Z,78.90
2022-12-14T02:32:24.216Z,103.63
2022-12-14T02:34:59.566Z,115.70
2022-12-14T02:37:35.668Z,113.68
2022-12-14T02:40:15.151Z,109.75
2022-12-14T02:42:50.903Z,80.70
2022-12-14T02:45:27.295Z,70.82
2022-12-14T02:48:00.001Z,79.57
2022-12-14T02:50:40.088Z,69.55
2022-12-14T02:53:16.453Z,73.75
2022-12-14T02:55:48.844Z,80.15
2022-12-14T02:58:21.665Z,86.18
2022-12-14T03:00:52.095Z,83.32
2022-12-14T03:03:22.632Z,111.68
2022-12-14T03:05:58.746Z,100.30
2022-12-14T03:08:28.166Z,108.78
2022-12-14T03:11:01.247Z,79.05
2022-12-14T03:13:31.721Z,72.18
2022-12-14T03:16:07.032Z,89.78
2022-12-14T03:18:39.192Z,61.33
2022-12-14T03:21:10.611Z,56.67
2022-12-14T03:23:42.253Z,53.95
2022-12-14T03:26:15.964Z,60.45
2022-12-14T03:28:46.884Z,53.93
2022-12-14T03:31:22.721Z,75.22
2022-12-14T03:33:54.855Z,78.97
2022-12-14T03:36:42.291Z,55.97
2022-12-14T03:39:13.507Z,69.40
2022-12-14T03:41:48.890Z,76.78
2022-12-14T03:44:31.470Z,67.75
2022-12-14T03:47:10.071Z,99.20
2022-12-14T03:49:50.775Z,82.28
2022-12-14T03:52:24.515Z,71.82
2022-12-14T03:55:08.996Z,62.37
2022-12-14T03:58:09.990Z,63.15
2022-12-14T04:00:44.577Z,51.92
2022-12-14T04:05:50.819Z,56.55
2022-12-14T04:08:24.516Z,55.03
2022-12-14T04:11:12.665Z,79.17
2022-12-14T04:14:00.937Z,55.38
2022-12-14T04:16:49.599Z,66.57
2022-12-14T04:19:27.728Z,57.78
2022-12-14T04:21:59.996Z,60.35
2022-12-14T04:24:52.549Z,60.95
2022-12-14T04:27:28.511Z,68.65
2022-12-14T04:29:56.554Z,60.88
2022-12-14T04:32:39.794Z,88.32
2022-12-14T04:35:22.368Z,61.05
2022-12-14T04:37:56.312Z,60.17
2022-12-14T04:40:27.319Z,57.75
2022-12-14T04:43:00.737Z,73.13
2022-12-14T04:45:31.077Z,68.78
2022-12-14T04:48:07.855Z,78.30
2022-12-14T04:50:40.761Z,57.33
2022-12-14T04:53:14.204Z,74.82
2022-12-14T04:55:47.442Z,74.57
2022-12-14T04:58:27.105Z,95.05
2022-12-14T05:01:16.178Z,63.95
2022-12-14T05:03:52.642Z,74.82
2022-12-14T05:06:26.167Z,64.63
2022-12-14T05:09:19.011Z,65.95
2022-12-14T05:11:57.974Z,75.47
2022-12-14T05:14:31.923Z,74.05
2022-12-14T05:17:05.014Z,101.32
2022-12-14T05:19:36.718Z,65.65
2022-12-14T05:22:08.900Z,95.78
2022-12-14T05:24:37.515Z,93.50
2022-12-14T05:27:06.264Z,97.47
2022-12-14T05:29:35.053Z,76.97
2022-12-14T05:32:04.371Z,57.97
2022-12-14T05:34:33.076Z,98.82
2022-12-14T05:37:01.589Z,79.07
2022-12-14T05:39:31.592Z,84.93
2022-12-14T05:42:00.505Z,93.28
2022-12-14T05:44:29.053Z,143.95
2022-12-14T05:46:57.459Z,112.90
2022-12-14T05:49:26.362Z,133.23
2022-12-14T05:51:54.878Z,116.40
2022-12-14T05:54:23.428Z,103.90
2022-12-14T05:56:56.197Z,133.63
2022-12-14T05:59:24.749Z,149.20
2022-12-14T06:01:53.118Z,82.57
2022-12-14T06:04:22.110Z,101.32
2022-12-14T06:06:50.993Z,123.20
2022-12-14T06:09:20.300Z,89.05
2022-12-14T06:11:49.997Z,167.20
2022-12-14T06:14:20.503Z,164.52
2022-12-14T06:16:51.338Z,153.40
2022-12-14T06:19:19.978Z,207.18
2022-12-14T06:21:57.424Z,260.17
2022-12-14T06:24:26.621Z,212.50
2022-12-14T06:26:58.153Z,239.25
2022-12-14T06:29:28.543Z,202.23
2022-12-14T06:32:05.285Z,253.30
2022-12-14T06:34:39.792Z,209.05
2022-12-14T06:37:12.294Z,235.17
2022-12-14T06:39:52.619Z,267.67
2022-12-14T06:42:22.911Z,254.00
2022-12-14T06:45:04.804Z,226.88
2022-12-14T06:47:34.787Z,200.63
2022-12-14T06:50:12.752Z,371.05
2022-12-14T06:52:41.225Z,227.82
2022-12-14T06:55:09.919Z,270.98
2022-12-14T06:57:46.080Z,218.50
2022-12-14T07:00:16.944Z,248.30
2022-12-14T07:02:45.651Z,289.67
2022-12-14T07:05:14.396Z,326.45
2022-12-14T07:07:43.487Z,407.98
2022-12-14T07:10:12.888Z,353.13
2022-12-14T07:12:41.573Z,354.73
2022-12-14T07:15:10.897Z,489.40
2022-12-14T07:17:41.009Z,349.35
2022-12-14T07:20:10.717Z,345.70
2022-12-14T07:22:39.376Z,346.00
2022-12-14T07:25:08.874Z,271.58
2022-12-14T07:27:37.281Z,390.67
2022-12-14T07:30:06.489Z,273.83
2022-12-14T07:32:35.521Z,301.45
2022-12-14T07:35:05.568Z,278.35
2022-12-14T07:37:34.037Z,287.23
2022-12-14T07:40:04.782Z,225.75
2022-12-14T07:42:33.110Z,246.05
2022-12-14T07:45:01.702Z,190.65
2022-12-14T07:47:31.425Z,251.80
2022-12-14T07:50:00.070Z,200.45
2022-12-14T07:52:35.750Z,150.50
2022-12-14T07:55:06.384Z,219.73
2022-12-14T07:57:36.136Z,181.50
2022-12-14T08:00:05.236Z,153.23
2022-12-14T08:02:33.787Z,186.35
2022-12-14T08:05:02.204Z,160.90
2022-12-14T08:07:32.444Z,163.15
2022-12-14T08:10:01.057Z,151.52
2022-12-14T08:12:31.621Z,163.20
2022-12-14T08:15:02.678Z,160.30
2022-12-14T08:17:31.262Z,170.13
2022-12-14T08:19:59.785Z,164.65
2022-12-14T08:22:28.319Z,241.88
2022-12-14T08:24:58.181Z,191.43
2022-12-14T08:27:26.580Z,209.95
2022-12-14T08:29:55.313Z,277.30
2022-12-14T08:32:34.582Z,278.15
2022-12-14T08:35:03.178Z,308.33
2022-12-14T08:37:31.612Z,227.30
2022-12-14T08:40:01.602Z,284.30
2022-12-14T08:42:29.950Z,336.65
2022-12-14T08:44:58.443Z,251.18
2022-12-14T08:47:26.895Z,275.80
2022-12-14T08:49:55.414Z,286.55
2022-12-14T08:52:23.854Z,331.67
2022-12-14T08:54:52.688Z,415.52
2022-12-14T08:57:22.408Z,370.83
2022-12-14T09:00:06.267Z,440.65
2022-12-14T09:02:35.074Z,341.52
2022-12-14T09:05:03.943Z,276.25
2022-12-14T09:07:33.186Z,365.40
2022-12-14T09:10:01.683Z,395.25
2022-12-14T09:12:31.728Z,366.67
2022-12-14T09:15:01.093Z,492.50
2022-12-14T09:17:29.565Z,403.27
2022-12-14T09:19:58.328Z,534.38
2022-12-14T09:22:26.815Z,408.90
2022-12-14T09:24:55.467Z,405.85
2022-12-14T09:27:23.949Z,440.50
2022-12-14T09:29:53.699Z,425.55
2022-12-14T09:32:22.113Z,368.48
2022-12-14T09:34:50.577Z,473.83
2022-12-14T09:37:19.396Z,454.80
2022-12-14T09:39:47.833Z,396.73
2022-12-14T09:42:26.586Z,408.02
2022-12-14T09:45:00.848Z,419.23
2022-12-14T09:47:32.699Z,403.92
2022-12-14T09:50:04.448Z,446.77
2022-12-14T09:52:37.132Z,530.95
2022-12-14T09:55:10.330Z,506.63
2022-12-14T09:57:41.109Z,494.42
2022-12-14T10:00:15.140Z,496.90
2022-12-14T10:02:51.965Z,509.23
2022-12-14T10:05:35.883Z,486.17
2022-12-14T10:08:08.286Z,454.20
2022-12-14T10:10:44.209Z,489.80
2022-12-14T10:13:21.093Z,519.20
2022-12-14T10:16:00.355Z,503.33
2022-12-14T10:18:58.931Z,493.30
2022-12-14T10:21:32.654Z,489.02
2022-12-14T10:24:04.675Z,499.38
2022-12-14T10:26:36.769Z,500.65
2022-12-14T10:29:08.154Z,480.58
2022-12-14T10:31:45.724Z,479.15
2022-12-14T10:34:19.224Z,467.83
2022-12-14T10:37:01.820Z,455.45
2022-12-14T10:39:39.992Z,462.00
2022-12-14T10:42:16.496Z,430.92
2022-12-14T10:45:04.186Z,414.27
2022-12-14T10:47:44.133Z,406.90
2022-12-14T10:50:19.188Z,366.70
2022-12-14T10:52:49.904Z,381.88
2022-12-14T10:55:20.658Z,377.55
2022-12-14T10:57:49.003Z,379.23
2022-12-14T11:00:25.966Z,386.80
2022-12-14T11:02:58.330Z,349.00
2022-12-14T11:05:37.124Z,358.02
2022-12-14T11:08:07.675Z,346.25
2022-12-14T11:10:37.092Z,523.47
2022-12-14T11:13:07.511Z,346.33
2022-12-14T11:15:37.708Z,340.77
2022-12-14T11:18:20.243Z,311.75
2022-12-14T11:20:52.402Z,332.80
2022-12-14T11:23:22.495Z,313.45
2022-12-14T11:25:52.603Z,326.25
2022-12-14T11:28:36.093Z,311.00
2022-12-14T11:31:07.682Z,372.58
2022-12-14T11:33:50.132Z,337.90
2022-12-14T11:36:25.796Z,362.13
2022-12-14T11:38:57.469Z,366.15
2022-12-14T11:41:33.764Z,382.77
2022-12-14T11:44:05.458Z,470.80
2022-12-14T11:46:48.556Z,439.95
2022-12-14T11:49:29.731Z,365.35
2022-12-14T11:52:03.455Z,415.58
2022-12-14T11:54:32.284Z,365.73
2022-12-14T11:57:04.513Z,323.73
2022-12-14T11:59:39.147Z,329.63
2022-12-14T12:04:49.396Z,395.80
2022-12-14T12:07:26.586Z,362.05
2022-12-14T12:09:55.399Z,298.75
2022-12-14T12:12:24.118Z,297.52
2022-12-14T12:14:56.823Z,512.47
2022-12-14T12:17:39.481Z,198.35
2022-12-14T12:20:19.835Z,184.55
2022-12-14T12:22:52.313Z,175.55
2022-12-14T12:25:27.529Z,195.10
2022-12-14T12:28:04.514Z,158.93
2022-12-14T12:33:10.305Z,606.75
2022-12-14T12:35:44.412Z,265.23
2022-12-14T12:38:20.009Z,247.27
2022-12-14T12:40:56.230Z,457.95
2022-12-14T12:43:27.727Z,283.95
2022-12-14T12:46:01.953Z,325.75
2022-12-14T12:48:34.379Z,323.58
2022-12-14T12:51:06.747Z,339.00
2022-12-14T12:53:37.199Z,328.20
2022-12-14T12:56:09.602Z,357.63
2022-12-14T12:58:38.988Z,371.23
2022-12-14T13:01:21.062Z,414.17
2022-12-14T13:03:52.481Z,494.50
2022-12-14T13:06:24.715Z,416.38
2022-12-14T13:08:58.657Z,396.38
2022-12-14T13:11:31.632Z,395.10
2022-12-14T13:14:03.232Z,425.23
2022-12-14T13:16:34.795Z,448.92
2022-12-14T13:19:40.341Z,498.90
2022-12-14T13:22:05.222Z,500.40
2022-12-14T13:24:35.067Z,480.83
2022-12-14T13:27:46.040Z,471.58
2022-12-14T13:30:23.330Z,496.10
2022-12-14T13:33:06.065Z,503.10
2022-12-14T13:35:47.707Z,514.30
2022-12-14T13:38:33.635Z,524.75
2022-12-14T13:41:27.466Z,515.70
2022-12-14T13:44:23.765Z,515.50
2022-12-14T13:47:01.720Z,536.38
2022-12-14T13:49:30.266Z,521.08
2022-12-14T13:51:58.785Z,669.72
2022-12-14T13:54:30.816Z,481.65
2022-12-14T13:57:05.296Z,442.83
2022-12-14T13:59:35.401Z,435.02
2022-12-14T14:02:04.929Z,485.55
2022-12-14T14:04:34.143Z,431.92
2022-12-14T14:07:35.581Z,397.05
2022-12-14T14:10:07.507Z,420.35
2022-12-14T14:12:46.202Z,378.25
2022-12-14T14:15:38.359Z,417.25
2022-12-14T14:18:19.250Z,449.52
2022-12-14T14:20:52.515Z,440.48
2022-12-14T14:23:55.891Z,475.05
2022-12-14T14:26:29.185Z,479.77
2022-12-14T14:29:23.528Z,478.48
2022-12-14T14:31:54.702Z,547.28
2022-12-14T14:34:38.462Z,417.98
2022-12-14T14:37:24.003Z,465.42
2022-12-14T14:40:07.613Z,539.28
2022-12-14T14:42:49.255Z,500.75
2022-12-14T14:45:37.645Z,497.95
2022-12-14T14:48:22.006Z,534.70
2022-12-14T14:50:51.621Z,519.13
2022-12-14T14:53:31.145Z,498.52
2022-12-14T14:56:02.323Z,534.45
2022-12-14T14:58:35.366Z,473.77
2022-12-14T15:01:22.293Z,518.22
2022-12-14T15:03:57.067Z,564.60
2022-12-14T15:06:27.932Z,514.13
2022-12-14T15:09:05.434Z,522.58
2022-12-14T15:11:42.845Z,522.47
2022-12-14T15:14:27.661Z,514.30
2022-12-14T15:16:56.196Z,496.88
2022-12-14T15:19:33.357Z,493.77
2022-12-14T15:22:04.347Z,479.40
2022-12-14T15:24:36.499Z,492.75
2022-12-14T15:27:11.994Z,444.85
2022-12-14T15:29:42.960Z,482.13
2022-12-14T15:32:17.867Z,483.33
2022-12-14T15:34:55.103Z,480.95
2022-12-14T15:37:30.087Z,442.02
2022-12-14T15:40:05.893Z,427.42
2022-12-14T15:42:39.986Z,441.15
2022-12-14T15:45:15.987Z,456.08
2022-12-14T15:47:44.485Z,454.10
2022-12-14T15:50:26.732Z,452.45
2022-12-14T15:52:56.784Z,461.48
2022-12-14T15:55:33.658Z,449.10
2022-12-14T15:58:08.783Z,516.17
2022-12-14T16:00:42.789Z,507.95
2022-12-14T16:03:20.298Z,445.80
2022-12-14T16:05:48.832Z,547.97
2022-12-14T16:08:17.760Z,475.00
2022-12-14T16:10:47.151Z,464.17
2022-12-14T16:13:23.888Z,481.42
2022-12-14T16:15:54.525Z,464.63
2022-12-14T16:18:23.089Z,478.38
2022-12-14T16:20:58.767Z,504.35
2022-12-14T16:23:32.751Z,535.38
2022-12-14T16:26:03.214Z,479.38
2022-12-14T16:28:33.760Z,487.60
2022-12-14T16:31:06.350Z,442.65
2022-12-14T16:33:36.392Z,424.60
2022-12-14T16:36:07.512Z,436.52
2022-12-14T16:38:41.625Z,446.65
2022-12-14T16:41:11.044Z,481.30
2022-12-14T16:43:41.144Z,436.90
2022-12-14T16:46:18.593Z,432.25
2022-12-14T16:49:24.229Z,472.00
2022-12-14T16:52:08.648Z,425.70
2022-12-14T16:54:38.722Z,444.30
2022-12-14T16:57:09.251Z,437.08
2022-12-14T16:59:43.368Z,455.58
2022-12-14T17:02:30.385Z,443.00
2022-12-14T17:05:00.196Z,386.67
2022-12-14T17:07:30.422Z,390.88
2022-12-14T17:09:58.954Z,348.30
2022-12-14T17:12:28.313Z,367.98
2022-12-14T17:14:56.768Z,392.00
2022-12-14T17:17:33.479Z,409.48
2022-12-14T17:20:02.354Z,404.30
2022-12-14T17:22:33.491Z,426.38
2022-12-14T17:25:02.721Z,419.92
2022-12-14T17:27:31.342Z,431.85
2022-12-14T17:29:59.818Z,392.58
2022-12-14T17:32:31.813Z,392.77
2022-12-14T17:35:00.913Z,382.95
2022-12-14T17:37:35.633Z,385.10
2022-12-14T17:40:06.010Z,380.42
2022-12-14T17:42:34.618Z,356.10
2022-12-14T17:45:03.511Z,423.70
2022-12-14T17:47:33.656Z,391.45
2022-12-14T17:50:03.968Z,528.78
2022-12-14T17:52:34.056Z,334.38
2022-12-14T17:55:02.781Z,385.55
2022-12-14T17:57:31.502Z,463.83
2022-12-14T18:00:13.973Z,425.95
2022-12-14T18:02:46.138Z,370.45
2022-12-14T18:05:20.049Z,390.98
2022-12-14T18:07:49.676Z,359.87
2022-12-14T18:10:19.655Z,367.88
2022-12-14T18:12:48.267Z,343.08
2022-12-14T18:15:25.999Z,352.67
2022-12-14T18:17:59.094Z,442.13
2022-12-14T18:20:27.592Z,360.92
2022-12-14T18:22:56.499Z,345.00
2022-12-14T18:25:31.774Z,354.00
2022-12-14T18:28:01.262Z,371.98
2022-12-14T18:30:35.050Z,363.42
2022-12-14T18:33:08.690Z,359.38
2022-12-14T18:35:37.431Z,381.25
2022-12-14T18:38:06.062Z,381.83
2022-12-14T18:40:34.929Z,374.13
2022-12-14T18:43:03.349Z,384.98
2022-12-14T18:45:33.680Z,407.27
2022-12-14T18:48:02.416Z,428.98
2022-12-14T18:50:32.441Z,389.30
2022-12-14T18:53:01.212Z,362.48
2022-12-14T18:55:32.146Z,391.70
2022-12-14T18:58:02.992Z,402.05
2022-12-14T19:00:33.745Z,400.67
2022-12-14T19:03:04.298Z,369.38
2022-12-14T19:05:34.499Z,419.92
2022-12-14T19:08:03.011Z,404.17
2022-12-14T19:10:33.552Z,365.45
2022-12-14T19:13:02.065Z,404.30
2022-12-14T19:15:33.087Z,390.08
2022-12-14T19:18:02.157Z,340.92
2022-12-14T19:20:31.212Z,330.77
2022-12-14T19:23:02.348Z,378.60
2022-12-14T19:25:31.119Z,307.15
2022-12-14T19:28:30.187Z,355.42
2022-12-14T19:30:48.896Z,337.65
2022-12-14T19:33:17.324Z,291.50
2022-12-14T19:35:48.633Z,314.83
2022-12-14T19:38:18.616Z,305.60
2022-12-14T19:40:57.616Z,298.40
2022-12-14T19:43:26.098Z,325.98
2022-12-14T19:45:54.431Z,372.40
2022-12-14T19:48:23.252Z,327.98
2022-12-14T19:50:51.995Z,367.15
2022-12-14T19:53:28.254Z,388.25
2022-12-14T19:55:56.989Z,384.27
2022-12-14T19:58:25.892Z,388.20
2022-12-14T20:00:54.898Z,348.60
2022-12-14T20:03:23.705Z,323.42
2022-12-14T20:05:55.512Z,378.98
2022-12-14T20:08:25.474Z,395.02
2022-12-14T20:10:54.303Z,370.23
2022-12-14T20:13:24.735Z,342.60
2022-12-14T20:15:55.151Z,388.55
2022-12-14T20:18:24.564Z,355.58
2022-12-14T20:20:53.676Z,373.13
2022-12-14T20:23:22.750Z,365.08
2022-12-14T20:25:52.938Z,338.55
2022-12-14T20:28:21.640Z,330.75
2022-12-14T20:30:52.378Z,327.38
2022-12-14T20:33:28.140Z,364.52
2022-12-14T20:35:58.828Z,355.13
2022-12-14T20:38:27.780Z,361.33
2022-12-14T20:41:04.069Z,361.70
2022-12-14T20:43:35.917Z,357.70
2022-12-14T20:46:04.839Z,375.35
2022-12-14T20:48:34.081Z,354.85
2022-12-14T20:51:03.515Z,383.67
2022-12-14T20:53:32.494Z,350.70
2022-12-14T20:56:05.789Z,360.75
2022-12-14T20:58:34.173Z,347.02
2022-12-14T21:01:07.377Z,363.45
2022-12-14T21:03:36.670Z,368.70
2022-12-14T21:06:05.711Z,379.52
2022-12-14T21:08:54.654Z,314.15
2022-12-14T21:11:42.109Z,284.83
2022-12-14T21:14:10.779Z,326.52
2022-12-14T21:16:39.524Z,349.80
2022-12-14T21:19:08.500Z,279.60
2022-12-14T21:21:36.898Z,345.10
2022-12-14T21:24:05.638Z,317.95
2022-12-14T21:26:36.883Z,307.40
2022-12-14T21:29:06.570Z,325.90
2022-12-14T21:31:35.583Z,306.57
2022-12-14T21:34:04.160Z,345.80
2022-12-14T21:36:33.392Z,351.00
2022-12-14T21:39:03.401Z,363.75
2022-12-14T21:41:52.089Z,386.63
2022-12-14T21:44:20.632Z,355.15
2022-12-14T21:46:49.053Z,398.58
2022-12-14T21:49:17.682Z,368.33
2022-12-14T21:51:46.265Z,393.40
2022-12-14T21:54:18.560Z,374.88
2022-12-14T21:57:05.655Z,396.50
2022-12-14T21:59:36.155Z,392.05
2022-12-14T22:02:06.270Z,392.15
2022-12-14T22:04:39.792Z,404.80
2022-12-14T22:07:08.613Z,353.52
2022-12-14T22:09:37.573Z,380.13
2022-12-14T22:12:07.859Z,413.30
2022-12-14T22:14:36.759Z,415.25
2022-12-14T22:17:05.880Z,427.98
2022-12-14T22:19:34.410Z,355.20
2022-12-14T22:22:02.927Z,437.25
2022-12-14T22:24:31.490Z,400.15
2022-12-14T22:27:00.575Z,372.25
2022-12-14T22:29:30.506Z,416.15
2022-12-14T22:31:59.010Z,431.50
2022-12-14T22:34:27.555Z,423.35
2022-12-14T22:36:56.025Z,433.33
2022-12-14T22:39:24.723Z,420.77
2022-12-14T22:41:53.432Z,372.50
2022-12-14T22:44:21.881Z,440.17
2022-12-14T22:46:51.723Z,388.02
2022-12-14T22:49:20.814Z,340.63
2022-12-14T22:51:50.470Z,356.77
2022-12-14T22:54:22.678Z,408.58
2022-12-14T22:56:53.996Z,445.15
2022-12-14T22:59:25.268Z,428.25
2022-12-14T23:01:55.426Z,359.45
2022-12-14T23:04:24.139Z,444.77
2022-12-14T23:06:52.591Z,455.60
2022-12-14T23:09:38.404Z,399.63
2022-12-14T23:12:25.203Z,412.48
2022-12-14T23:15:10.870Z,419.88
2022-12-14T23:17:58.203Z,429.30
2022-12-14T23:20:44.386Z,431.70
2022-12-14T23:23:30.564Z,400.52
2022-12-14T23:26:20.356Z,388.08
2022-12-14T23:29:06.518Z,354.63
2022-12-14T23:31:52.235Z,415.48
2022-12-14T23:34:39.658Z,434.48
2022-12-14T23:37:25.630Z,383.42
2022-12-14T23:40:11.608Z,388.70
2022-12-14T23:42:57.441Z,373.88
2022-12-14T23:45:43.682Z,408.63
2022-12-14T23:48:29.794Z,448.63
2022-12-14T23:51:19.320Z,418.23
2022-12-14T23:54:05.270Z,380.65
2022-12-14T23:56:51.316Z,432.15
2022-12-14T23:59:37.554Z,396.85
